Time;durP1;ratioP1;P1;durP2;ratioP2;P2;SDS_P1;SDS_P2;PMS_P1;PMS_P2;Temp;Humidity;BMP_temperature;BMP_pressure;BME280_temperature;BME280_humidity;BME280_pressure;Samples;Min_cycle;Max_cycle;Signal;HPM_P1;HPM_P2
2023/10/28 06:54:20;;;;;;;1.83;0.97;;;;;;;;;;5125624;22;20240;-31
2023/10/28 06:56:47;;;;;;;1.87;1.53;;;;;;;;;;5020873;28;20284;-30
2023/10/28 06:59:15;;;;;;;3.63;1.47;;;;;;;;;;5032871;28;20207;-31
2023/10/28 07:01:42;;;;;;;3.33;1.43;;;;;;;;;;5034487;28;20254;-32
2023/10/28 07:04:10;;;;;;;3.30;1.73;;;;;;;;;;5035072;28;20236;-29
2023/10/28 07:06:39;;;;;;;3.17;1.93;;;;;;;;;;5036049;28;20210;-30
2023/10/28 07:09:06;;;;;;;2.60;2.10;;;;;;;;;;5033350;28;20301;-32
2023/10/28 07:11:34;;;;;;;2.77;1.80;;;;;;;;;;5027211;28;20206;-31
2023/10/28 07:14:02;;;;;;;4.53;2.20;;;;;;;;;;5027018;28;20227;-31
2023/10/28 07:16:30;;;;;;;2.63;1.70;;;;;;;;;;5037977;28;20202;-32
2023/10/28 07:18:57;;;;;;;4.07;1.87;;;;;;;;;;5032990;28;20285;-31
2023/10/28 07:21:24;;;;;;;3.07;1.70;;;;;;;;;;5035158;28;20231;-31
2023/10/28 07:23:52;;;;;;;2.77;1.80;;;;;;;;;;5030734;28;20692;-31
2023/10/28 07:26:19;;;;;;;4.00;1.70;;;;;;;;;;5023689;28;20209;-33
2023/10/28 07:28:47;;;;;;;1.80;1.70;;;;;;;;;;5031517;28;20306;-29
2023/10/28 07:31:15;;;;;;;4.60;1.90;;;;;;;;;;5029889;28;20207;-32
2023/10/28 07:33:42;;;;;;;3.27;2.33;;;;;;;;;;5027397;28;20230;-31
2023/10/28 07:36:12;;;;;;;7.60;1.80;;;;;;;;;;5031141;28;20215;-32
2023/10/28 07:38:40;;;;;;;3.93;2.30;;;;;;;;;;5027278;28;20285;-30
2023/10/28 07:41:07;;;;;;;2.67;2.43;;;;;;;;;;5018695;28;20238;-31
2023/10/28 07:43:34;;;;;;;3.90;1.87;;;;;;;;;;5030631;28;20227;-32
2023/10/28 07:46:03;;;;;;;6.47;2.40;;;;;;;;;;5030846;28;20202;-29
2023/10/28 07:48:31;;;;;;;3.20;1.80;;;;;;;;;;5021007;28;20406;-31
2023/10/28 07:50:59;;;;;;;3.83;1.50;;;;;;;;;;5022106;28;20199;-32
2023/10/28 07:53:26;;;;;;;3.83;2.13;;;;;;;;;;5029781;28;20230;-32
2023/10/28 07:55:53;;;;;;;3.07;2.20;;;;;;;;;;5017697;28;20238;-30
2023/10/28 07:58:21;;;;;;;3.23;2.10;;;;;;;;;;5029285;28;20679;-33
2023/10/28 08:00:48;;;;;;;1.90;1.80;;;;;;;;;;5023602;28;20250;-32
2023/10/28 08:03:17;;;;;;;3.83;2.00;;;;;;;;;;5028315;28;20230;-32
2023/10/28 08:05:45;;;;;;;1.87;1.53;;;;;;;;;;5023613;28;20214;-32
2023/10/28 08:08:12;;;;;;;5.73;1.63;;;;;;;;;;5015624;28;20222;-32
2023/10/28 08:10:40;;;;;;;1.97;1.43;;;;;;;;;;5019657;28;20213;-30
2023/10/28 08:13:07;;;;;;;2.40;1.10;;;;;;;;;;5027734;28;20218;-29
2023/10/28 08:15:35;;;;;;;2.93;1.00;;;;;;;;;;5019880;28;20206;-30
2023/10/28 08:18:02;;;;;;;1.93;1.70;;;;;;;;;;5022519;28;20704;-29
2023/10/28 08:20:30;;;;;;;2.47;1.50;;;;;;;;;;5026524;28;20218;-31
2023/10/28 08:22:57;;;;;;;1.77;1.43;;;;;;;;;;5029750;28;20206;-31
2023/10/28 08:25:25;;;;;;;1.90;1.50;;;;;;;;;;5023284;28;20203;-29
2023/10/28 08:27:52;;;;;;;1.93;1.00;;;;;;;;;;5024111;28;20211;-32
2023/10/28 08:30:20;;;;;;;0.73;0.73;;;;;;;;;;5023452;28;20288;-31
2023/10/28 08:32:47;;;;;;;2.20;1.07;;;;;;;;;;5020776;28;20215;-28
2023/10/28 08:35:14;;;;;;;1.17;0.90;;;;;;;;;;5019645;28;20227;-32
2023/10/28 08:37:43;;;;;;;0.90;0.50;;;;;;;;;;5024679;28;20207;-30
2023/10/28 08:40:12;;;;;;;2.60;1.00;;;;;;;;;;5019578;28;20227;-30
2023/10/28 08:42:40;;;;;;;1.50;0.80;;;;;;;;;;5025490;28;20573;-30
2023/10/28 08:45:08;;;;;;;1.63;0.60;;;;;;;;;;5029271;28;20317;-31
2023/10/28 08:47:38;;;;;;;1.47;0.83;;;;;;;;;;5030082;28;20206;-30
2023/10/28 08:50:07;;;;;;;2.67;1.00;;;;;;;;;;5011466;28;20575;-32
2023/10/28 08:52:37;;;;;;;2.37;0.80;;;;;;;;;;5028349;28;20206;-30
2023/10/28 08:55:07;;;;;;;2.07;0.70;;;;;;;;;;5023964;28;20238;-35
2023/10/28 08:57:36;;;;;;;1.70;0.90;;;;;;;;;;5049182;28;20316;-32
2023/10/28 09:00:08;;;;;;;2.43;0.73;;;;;;;;;;5048852;28;20222;-31
2023/10/28 09:02:37;;;;;;;2.03;0.90;;;;;;;;;;5031935;28;20203;-35
2023/10/28 09:05:04;;;;;;;1.33;0.70;;;;;;;;;;5045406;28;20230;-29
2023/10/28 09:07:31;;;;;;;3.23;1.00;;;;;;;;;;5049594;28;20210;-30
2023/10/28 09:09:59;;;;;;;3.20;0.83;;;;;;;;;;5042039;28;20301;-30
2023/10/28 09:12:27;;;;;;;5.00;0.80;;;;;;;;;;5049422;28;20210;-31
2023/10/28 09:14:54;;;;;;;1.27;0.90;;;;;;;;;;5052095;28;20222;-31
2023/10/28 09:17:21;;;;;;;1.73;0.70;;;;;;;;;;5051566;28;20217;-30
2023/10/28 09:19:48;;;;;;;1.07;0.57;;;;;;;;;;5039557;28;20750;-31
2023/10/28 09:22:16;;;;;;;2.37;1.07;;;;;;;;;;5046855;28;20499;-30
2023/10/28 09:24:46;;;;;;;4.03;1.17;;;;;;;;;;5035958;28;20233;-31
2023/10/28 09:27:13;;;;;;;3.10;0.70;;;;;;;;;;5043603;28;20230;-31
2023/10/28 09:29:42;;;;;;;2.07;0.70;;;;;;;;;;5049916;28;20206;-30
2023/10/28 09:32:10;;;;;;;4.27;1.07;;;;;;;;;;5048210;28;20202;-33
2023/10/28 09:34:38;;;;;;;1.33;0.90;;;;;;;;;;5041805;28;20325;-31
2023/10/28 09:37:05;;;;;;;4.30;1.20;;;;;;;;;;5045505;28;20218;-34
2023/10/28 09:39:33;;;;;;;2.10;0.80;;;;;;;;;;5034686;28;20260;-32
2023/10/28 09:42:00;;;;;;;1.13;0.70;;;;;;;;;;5044060;28;20241;-30
2023/10/28 09:44:27;;;;;;;3.43;1.03;;;;;;;;;;5048623;28;20569;-32
2023/10/28 09:46:58;;;;;;;2.50;0.77;;;;;;;;;;5049138;28;20208;-32
2023/10/28 09:49:29;;;;;;;1.10;0.63;;;;;;;;;;5041489;28;20208;-31
2023/10/28 09:51:58;;;;;;;1.93;0.80;;;;;;;;;;5043663;28;20566;-31
2023/10/28 09:54:27;;;;;;;2.50;0.90;;;;;;;;;;5035440;28;20236;-31
2023/10/28 09:56:55;;;;;;;2.37;0.67;;;;;;;;;;5031302;28;20217;-32
2023/10/28 09:59:24;;;;;;;1.30;0.90;;;;;;;;;;5049243;28;20228;-31
2023/10/28 10:01:56;;;;;;;3.00;1.00;;;;;;;;;;5048586;28;20222;-31
2023/10/28 10:04:31;;;;;;;4.20;1.00;;;;;;;;;;5044749;28;20272;-31
2023/10/28 10:06:58;;;;;;;2.63;0.80;;;;;;;;;;5045154;28;20205;-29
2023/10/28 10:09:25;;;;;;;2.10;1.00;;;;;;;;;;5040867;28;20221;-30
2023/10/28 10:11:54;;;;;;;2.50;0.90;;;;;;;;;;5040083;28;20202;-31
2023/10/28 10:14:22;;;;;;;1.80;0.97;;;;;;;;;;5049088;28;20253;-30
2023/10/28 10:16:54;;;;;;;1.33;0.70;;;;;;;;;;5044075;28;20230;-31
2023/10/28 10:19:22;;;;;;;1.37;0.83;;;;;;;;;;5039634;28;20214;-32
2023/10/28 10:21:52;;;;;;;1.10;0.67;;;;;;;;;;5050993;28;20313;-31
2023/10/28 10:24:20;;;;;;;1.53;0.90;;;;;;;;;;5046022;28;20616;-32
2023/10/28 10:26:55;;;;;;;3.03;0.73;;;;;;;;;;5050894;28;20300;-31
2023/10/28 10:29:22;;;;;;;3.37;0.80;;;;;;;;;;5054762;28;20213;-32
2023/10/28 10:31:51;;;;;;;2.43;0.80;;;;;;;;;;5050528;28;20209;-30
2023/10/28 10:34:31;;;;;;;0.70;0.60;;;;;;;;;;5045881;28;20642;-30
2023/10/28 10:37:00;;;;;;;2.63;0.80;;;;;;;;;;5053210;28;20206;-30
2023/10/28 10:39:27;;;;;;;2.30;0.67;;;;;;;;;;5047091;28;20206;-31
2023/10/28 10:41:55;;;;;;;3.00;0.70;;;;;;;;;;5046736;28;20249;-32
2023/10/28 10:44:26;;;;;;;1.80;0.90;;;;;;;;;;5052143;28;20229;-31
2023/10/28 10:46:58;;;;;;;13.13;1.33;;;;;;;;;;5052383;28;20214;-30
2023/10/28 10:49:25;;;;;;;2.57;0.70;;;;;;;;;;5047865;28;20692;-31
2023/10/28 10:51:52;;;;;;;1.07;0.87;;;;;;;;;;5045745;28;20211;-31
2023/10/28 10:54:21;;;;;;;3.03;0.77;;;;;;;;;;5043483;28;20226;-30
2023/10/28 10:56:48;;;;;;;4.20;1.00;;;;;;;;;;5051977;28;20220;-30
2023/10/28 10:59:15;;;;;;;3.17;0.80;;;;;;;;;;5054670;28;20210;-31
2023/10/28 11:01:42;;;;;;;1.30;0.80;;;;;;;;;;5054185;28;20579;-30
2023/10/28 11:04:11;;;;;;;4.30;1.37;;;;;;;;;;5048977;28;20227;-29
2023/10/28 11:06:38;;;;;;;3.93;1.10;;;;;;;;;;5044141;28;20238;-30
2023/10/28 11:09:06;;;;;;;3.23;0.87;;;;;;;;;;5047422;28;20210;-30
2023/10/28 11:11:35;;;;;;;7.40;1.40;;;;;;;;;;5046180;28;20230;-29
2023/10/28 11:14:04;;;;;;;3.67;0.90;;;;;;;;;;5051965;28;20272;-34
2023/10/28 11:16:32;;;;;;;3.00;1.13;;;;;;;;;;5052510;28;20235;-32
2023/10/28 11:18:59;;;;;;;2.83;0.77;;;;;;;;;;5041051;28;20293;-31
2023/10/28 11:21:28;;;;;;;4.07;1.17;;;;;;;;;;5050081;28;20226;-30
2023/10/28 11:23:56;;;;;;;0.93;0.83;;;;;;;;;;5046276;28;20234;-31
2023/10/28 11:26:23;;;;;;;5.27;1.10;;;;;;;;;;5051796;28;20210;-29
2023/10/28 11:28:52;;;;;;;0.90;0.80;;;;;;;;;;5055219;28;20527;-29
2023/10/28 11:31:20;;;;;;;3.00;1.10;;;;;;;;;;5053598;28;20206;-31
2023/10/28 11:33:47;;;;;;;6.33;1.57;;;;;;;;;;5043142;28;20589;-30
2023/10/28 11:36:14;;;;;;;5.17;0.93;;;;;;;;;;5044757;28;20211;-29
2023/10/28 11:38:43;;;;;;;4.80;1.23;;;;;;;;;;5050480;28;20217;-33
2023/10/28 11:41:11;;;;;;;2.60;1.00;;;;;;;;;;5043157;28;20222;-30
2023/10/28 11:43:39;;;;;;;3.03;1.10;;;;;;;;;;5048217;28;20685;-31
2023/10/28 11:46:07;;;;;;;2.90;1.00;;;;;;;;;;5042287;28;20214;-31
2023/10/28 11:48:35;;;;;;;3.83;1.10;;;;;;;;;;5047403;28;20597;-31
2023/10/28 11:51:04;;;;;;;4.30;1.37;;;;;;;;;;5048126;28;20203;-32
2023/10/28 11:53:32;;;;;;;1.63;1.13;;;;;;;;;;5050198;28;20275;-33
2023/10/28 11:56:03;;;;;;;5.57;1.10;;;;;;;;;;5042479;28;20581;-27
2023/10/28 11:58:31;;;;;;;4.43;1.10;;;;;;;;;;5045041;28;20217;-29
2023/10/28 12:00:59;;;;;;;5.57;1.20;;;;;;;;;;5052778;28;20222;-31
2023/10/28 12:03:27;;;;;;;3.03;1.10;;;;;;;;;;5045963;28;20249;-30
2023/10/28 12:05:54;;;;;;;1.87;1.13;;;;;;;;;;5039815;28;20209;-29
2023/10/28 12:08:22;;;;;;;4.63;1.13;;;;;;;;;;5052752;28;20427;-31
2023/10/28 12:10:50;;;;;;;5.47;1.63;;;;;;;;;;5049594;28;20618;-29
2023/10/28 12:13:18;;;;;;;3.73;1.30;;;;;;;;;;5052557;28;20234;-30
2023/10/28 12:15:45;;;;;;;5.73;1.30;;;;;;;;;;5053738;28;20209;-30
2023/10/28 12:18:12;;;;;;;4.27;1.47;;;;;;;;;;5049853;28;20585;-30
2023/10/28 12:20:41;;;;;;;5.33;1.10;;;;;;;;;;5046097;28;20203;-32
2023/10/28 12:23:10;;;;;;;5.40;1.47;;;;;;;;;;5052988;28;20213;-31
2023/10/28 12:25:37;;;;;;;3.50;1.13;;;;;;;;;;5036186;28;20215;-29
2023/10/28 12:28:05;;;;;;;4.70;0.90;;;;;;;;;;5048419;28;20261;-31
2023/10/28 12:30:32;;;;;;;5.90;1.27;;;;;;;;;;5052495;28;20609;-30
2023/10/28 12:32:59;;;;;;;3.27;1.13;;;;;;;;;;5049273;28;20634;-30
2023/10/28 12:35:26;;;;;;;3.07;1.23;;;;;;;;;;5041401;28;20225;-31
2023/10/28 12:37:55;;;;;;;5.40;1.50;;;;;;;;;;5052651;28;20208;-31
2023/10/28 12:40:22;;;;;;;4.87;0.93;;;;;;;;;;5044582;28;20298;-31
2023/10/28 12:42:50;;;;;;;3.33;1.40;;;;;;;;;;5051904;28;20242;-29
2023/10/28 12:45:17;;;;;;;4.70;1.73;;;;;;;;;;5050971;28;20233;-32
2023/10/28 12:47:44;;;;;;;4.37;1.03;;;;;;;;;;5046519;28;20618;-31
2023/10/28 12:50:14;;;;;;;3.00;1.00;;;;;;;;;;5043760;28;20283;-32
2023/10/28 12:52:42;;;;;;;3.93;1.10;;;;;;;;;;5051843;28;20211;-30
2023/10/28 12:55:11;;;;;;;5.23;1.63;;;;;;;;;;5036439;28;20292;-32
2023/10/28 12:57:38;;;;;;;4.33;1.23;;;;;;;;;;5040468;28;20210;-31
2023/10/28 13:00:10;;;;;;;2.10;1.07;;;;;;;;;;5043043;28;20208;-32
2023/10/28 13:02:37;;;;;;;2.97;1.30;;;;;;;;;;5047270;28;20210;-31
2023/10/28 13:05:05;;;;;;;3.93;1.30;;;;;;;;;;5051010;28;20229;-32
2023/10/28 13:07:34;;;;;;;2.40;0.90;;;;;;;;;;5050102;28;20205;-31
2023/10/28 13:10:01;;;;;;;6.90;1.30;;;;;;;;;;5041738;28;20853;-31
2023/10/28 13:12:31;;;;;;;3.17;1.40;;;;;;;;;;5043651;28;20200;-32
2023/10/28 13:14:58;;;;;;;3.03;1.20;;;;;;;;;;5043421;28;20226;-29
2023/10/28 13:17:26;;;;;;;2.67;0.90;;;;;;;;;;5050996;28;20301;-31
2023/10/28 13:19:53;;;;;;;2.47;0.80;;;;;;;;;;5055807;28;20215;-30
2023/10/28 13:22:21;;;;;;;2.83;0.80;;;;;;;;;;5049471;28;20312;-31
2023/10/28 13:24:48;;;;;;;3.73;1.20;;;;;;;;;;5044743;28;20223;-31
2023/10/28 13:27:15;;;;;;;3.23;0.90;;;;;;;;;;5058410;28;20206;-31
2023/10/28 13:29:44;;;;;;;1.87;1.20;;;;;;;;;;5053264;28;20200;-31
2023/10/28 13:32:12;;;;;;;1.63;1.20;;;;;;;;;;5048059;28;20209;-29
2023/10/28 13:34:40;;;;;;;1.57;1.10;;;;;;;;;;5051603;28;20308;-30
2023/10/28 13:37:11;;;;;;;4.70;1.23;;;;;;;;;;5058729;28;20300;-30
2023/10/28 13:39:38;;;;;;;2.43;0.83;;;;;;;;;;5047364;28;20648;-29
2023/10/28 13:42:07;;;;;;;2.53;1.10;;;;;;;;;;5052779;28;20229;-31
2023/10/28 13:44:34;;;;;;;3.73;1.17;;;;;;;;;;5054276;28;20239;-30
2023/10/28 13:47:03;;;;;;;4.53;1.63;;;;;;;;;;5049244;28;20206;-31
2023/10/28 13:49:30;;;;;;;4.43;1.03;;;;;;;;;;5041453;28;20733;-32
2023/10/28 13:52:00;;;;;;;2.50;1.17;;;;;;;;;;5048558;28;20289;-31
2023/10/28 13:54:27;;;;;;;5.27;1.20;;;;;;;;;;5036930;28;20253;-32
2023/10/28 13:56:54;;;;;;;9.03;1.30;;;;;;;;;;5042629;28;20220;-31
2023/10/28 13:59:22;;;;;;;3.60;1.30;;;;;;;;;;5050682;28;20207;-31
2023/10/28 14:01:50;;;;;;;2.70;1.27;;;;;;;;;;5050304;28;20222;-30
2023/10/28 14:04:18;;;;;;;3.27;1.40;;;;;;;;;;5040833;28;20259;-29
2023/10/28 14:06:45;;;;;;;4.33;1.30;;;;;;;;;;5047959;28;20201;-34
2023/10/28 14:09:14;;;;;;;2.87;1.27;;;;;;;;;;5044278;28;20199;-32
2023/10/28 14:11:41;;;;;;;3.80;1.40;;;;;;;;;;5043496;28;20210;-30
2023/10/28 14:14:09;;;;;;;5.40;1.47;;;;;;;;;;5052872;28;20226;-30
2023/10/28 14:16:37;;;;;;;3.20;1.50;;;;;;;;;;5052731;28;20208;-30
2023/10/28 14:19:06;;;;;;;3.60;1.40;;;;;;;;;;5046904;28;20200;-30
2023/10/28 14:21:35;;;;;;;6.10;1.50;;;;;;;;;;5049058;28;20620;-31
2023/10/28 14:24:02;;;;;;;6.07;1.97;;;;;;;;;;5042645;28;20248;-30
2023/10/28 14:26:29;;;;;;;2.60;1.20;;;;;;;;;;5044782;28;20211;-32
2023/10/28 14:28:56;;;;;;;5.90;2.23;;;;;;;;;;5052396;28;20206;-31
2023/10/28 14:31:24;;;;;;;4.33;2.00;;;;;;;;;;5045576;28;20209;-30
2023/10/28 14:33:51;;;;;;;6.63;1.87;;;;;;;;;;5040757;28;20229;-33
2023/10/28 14:36:18;;;;;;;5.50;1.97;;;;;;;;;;5042824;28;20565;-30
2023/10/28 14:38:46;;;;;;;5.87;2.10;;;;;;;;;;5042264;28;20202;-32
2023/10/28 14:41:14;;;;;;;5.03;2.07;;;;;;;;;;5038448;28;20191;-31
2023/10/28 14:43:41;;;;;;;2.70;1.70;;;;;;;;;;5049136;28;20225;-31
2023/10/28 14:46:09;;;;;;;4.27;1.80;;;;;;;;;;5046558;28;20205;-32
2023/10/28 14:48:37;;;;;;;8.67;2.13;;;;;;;;;;5044219;28;20214;-32
2023/10/28 14:51:05;;;;;;;2.83;1.40;;;;;;;;;;5047636;28;20211;-30
2023/10/28 14:53:32;;;;;;;3.87;1.40;;;;;;;;;;5045943;28;20297;-32
2023/10/28 14:56:00;;;;;;;3.60;1.60;;;;;;;;;;5034790;28;20206;-30
2023/10/28 14:58:28;;;;;;;4.10;1.50;;;;;;;;;;5047975;28;20217;-31
2023/10/28 15:00:55;;;;;;;4.47;1.30;;;;;;;;;;5055080;28;20293;-30
2023/10/28 15:03:23;;;;;;;3.87;1.50;;;;;;;;;;5050714;28;20229;-33
2023/10/28 15:05:51;;;;;;;2.47;1.30;;;;;;;;;;5043091;28;20219;-30
2023/10/28 15:08:18;;;;;;;1.73;1.23;;;;;;;;;;5047065;28;20264;-32
2023/10/28 15:10:45;;;;;;;4.17;1.63;;;;;;;;;;5040284;28;20215;-30
2023/10/28 15:13:14;;;;;;;2.63;1.30;;;;;;;;;;5051469;28;20338;-31
2023/10/28 15:15:41;;;;;;;3.53;1.20;;;;;;;;;;5051165;28;20218;-30
2023/10/28 15:18:08;;;;;;;4.00;1.50;;;;;;;;;;5052126;28;20601;-31
2023/10/28 15:20:35;;;;;;;3.73;1.93;;;;;;;;;;5041558;28;20207;-30
2023/10/28 15:23:04;;;;;;;6.80;1.97;;;;;;;;;;5039811;28;20231;-31
2023/10/28 15:25:32;;;;;;;5.20;2.17;;;;;;;;;;5031371;28;20234;-30
2023/10/28 15:27:59;;;;;;;2.97;1.53;;;;;;;;;;5043828;28;20203;-30
2023/10/28 15:30:27;;;;;;;8.93;2.20;;;;;;;;;;5050672;28;20223;-32
2023/10/28 15:32:54;;;;;;;4.23;2.13;;;;;;;;;;5041308;28;20397;-30
2023/10/28 15:35:22;;;;;;;5.60;2.20;;;;;;;;;;5043323;28;20218;-32
2023/10/28 15:37:50;;;;;;;4.30;1.80;;;;;;;;;;5047858;28;20212;-29
2023/10/28 15:40:18;;;;;;;2.17;1.73;;;;;;;;;;5040486;28;20255;-31
2023/10/28 15:42:45;;;;;;;9.00;2.70;;;;;;;;;;5046516;28;20226;-31
2023/10/28 15:45:12;;;;;;;4.67;1.80;;;;;;;;;;5045353;28;20257;-32
2023/10/28 15:47:41;;;;;;;6.53;2.40;;;;;;;;;;5038154;28;20261;-31
2023/10/28 15:50:08;;;;;;;7.40;2.77;;;;;;;;;;5040707;28;20665;-31
2023/10/28 15:52:35;;;;;;;6.10;2.47;;;;;;;;;;5040138;28;20221;-33
2023/10/28 15:55:06;;;;;;;3.30;2.13;;;;;;;;;;5036407;28;20466;-31
2023/10/28 15:57:33;;;;;;;7.70;2.20;;;;;;;;;;5042781;28;20211;-31
2023/10/28 16:00:03;;;;;;;2.60;1.70;;;;;;;;;;5050666;28;20210;-29
2023/10/28 16:02:31;;;;;;;8.67;2.33;;;;;;;;;;5050334;28;20595;-30
2023/10/28 16:04:59;;;;;;;3.40;2.00;;;;;;;;;;5037304;28;20229;-34
2023/10/28 16:07:27;;;;;;;5.93;2.50;;;;;;;;;;5045692;28;20570;-31
2023/10/28 16:09:54;;;;;;;2.93;2.10;;;;;;;;;;5043346;28;20261;-30
2023/10/28 16:12:21;;;;;;;3.97;1.90;;;;;;;;;;5044005;28;20244;-30
2023/10/28 16:14:49;;;;;;;8.87;2.63;;;;;;;;;;5049486;28;20226;-30
2023/10/28 16:17:16;;;;;;;5.97;2.20;;;;;;;;;;5041075;28;20223;-31
2023/10/28 16:19:45;;;;;;;3.77;1.80;;;;;;;;;;5036705;28;20202;-31
2023/10/28 16:22:13;;;;;;;5.33;2.10;;;;;;;;;;5047667;28;20309;-30
2023/10/28 16:24:40;;;;;;;5.47;2.80;;;;;;;;;;5038142;28;20228;-31
2023/10/28 16:27:07;;;;;;;5.60;2.73;;;;;;;;;;5045491;28;20208;-30
2023/10/28 16:29:35;;;;;;;6.87;5.67;;;;;;;;;;5045708;28;20214;-30
2023/10/28 16:32:03;;;;;;;5.60;2.80;;;;;;;;;;5045762;28;20302;-32
2023/10/28 16:34:30;;;;;;;6.03;2.67;;;;;;;;;;5041845;28;20235;-32
2023/10/28 16:36:57;;;;;;;7.70;4.53;;;;;;;;;;5044140;28;20673;-30
2023/10/28 16:39:26;;;;;;;10.20;3.13;;;;;;;;;;5042080;28;20227;-32
2023/10/28 16:41:53;;;;;;;3.97;2.33;;;;;;;;;;5043435;28;20210;-31
2023/10/28 16:44:20;;;;;;;5.77;3.13;;;;;;;;;;5045246;28;20241;-33
2023/10/28 16:46:47;;;;;;;2.87;2.10;;;;;;;;;;5048634;28;20660;-31
2023/10/28 16:49:14;;;;;;;5.07;2.57;;;;;;;;;;5045604;28;20292;-31
2023/10/28 16:51:42;;;;;;;5.83;2.17;;;;;;;;;;5042142;28;20568;-31
2023/10/28 16:54:09;;;;;;;3.90;2.90;;;;;;;;;;5041987;28;20229;-31
2023/10/28 16:56:37;;;;;;;7.17;2.77;;;;;;;;;;5051372;28;20206;-31
2023/10/28 16:59:05;;;;;;;5.93;2.60;;;;;;;;;;5043550;28;20601;-31
2023/10/28 17:01:33;;;;;;;4.93;1.90;;;;;;;;;;5052040;28;20221;-30
2023/10/28 17:04:00;;;;;;;3.43;2.30;;;;;;;;;;5040580;28;20241;-30
2023/10/28 17:06:27;;;;;;;9.23;3.50;;;;;;;;;;5049565;28;20212;-29
2023/10/28 17:08:55;;;;;;;5.37;2.53;;;;;;;;;;5044030;28;20590;-29
2023/10/28 17:11:25;;;;;;;3.97;2.30;;;;;;;;;;5043695;28;20202;-29
2023/10/28 17:13:54;;;;;;;5.33;2.03;;;;;;;;;;5048165;28;20230;-30
2023/10/28 17:16:21;;;;;;;3.03;1.97;;;;;;;;;;5049075;28;20209;-30
2023/10/28 17:18:49;;;;;;;6.20;2.07;;;;;;;;;;5039335;28;20300;-31
2023/10/28 17:21:17;;;;;;;4.30;1.90;;;;;;;;;;5048643;28;20203;-29
2023/10/28 17:23:45;;;;;;;4.80;2.20;;;;;;;;;;5040373;28;20226;-34
2023/10/28 17:26:12;;;;;;;3.70;1.93;;;;;;;;;;5038376;28;20253;-31
2023/10/28 17:28:39;;;;;;;3.53;2.07;;;;;;;;;;5045157;28;20229;-30
2023/10/28 17:31:11;;;;;;;3.83;2.00;;;;;;;;;;5047923;28;20206;-30
2023/10/28 17:33:38;;;;;;;5.87;2.63;;;;;;;;;;5045833;28;20576;-31
2023/10/28 17:36:08;;;;;;;3.80;2.50;;;;;;;;;;5044225;28;20206;-31
2023/10/28 17:38:35;;;;;;;3.63;2.67;;;;;;;;;;5033681;28;20260;-34
2023/10/28 17:41:07;;;;;;;3.33;2.07;;;;;;;;;;5040149;28;20257;-30
2023/10/28 17:43:35;;;;;;;4.93;1.70;;;;;;;;;;5042958;28;20226;-31
2023/10/28 17:46:05;;;;;;;4.03;2.10;;;;;;;;;;5043541;28;20299;-30
2023/10/28 17:48:33;;;;;;;3.60;2.03;;;;;;;;;;5038702;28;20257;-30
2023/10/28 17:51:06;;;;;;;5.77;2.40;;;;;;;;;;5042617;28;20312;-30
2023/10/28 17:53:33;;;;;;;3.97;2.30;;;;;;;;;;5036677;28;20225;-33
2023/10/28 17:56:01;;;;;;;3.57;1.97;;;;;;;;;;5033887;28;20223;-33
2023/10/28 17:58:28;;;;;;;6.70;2.40;;;;;;;;;;5042582;28;20205;-31
2023/10/28 18:00:55;;;;;;;2.53;2.07;;;;;;;;;;5048092;28;20206;-34
2023/10/28 18:03:24;;;;;;;6.43;2.93;;;;;;;;;;5040963;28;20230;-30
2023/10/28 18:05:52;;;;;;;7.17;3.57;;;;;;;;;;5046295;28;20198;-30
2023/10/28 18:08:20;;;;;;;3.20;2.47;;;;;;;;;;5048987;28;20206;-31
2023/10/28 18:10:49;;;;;;;4.37;2.53;;;;;;;;;;5033657;28;20210;-30
2023/10/28 18:13:16;;;;;;;4.97;2.77;;;;;;;;;;5038389;28;20218;-33
2023/10/28 18:15:43;;;;;;;4.90;2.60;;;;;;;;;;5045927;28;20604;-31
2023/10/28 18:18:13;;;;;;;4.80;3.00;;;;;;;;;;5037661;28;20209;-31
2023/10/28 18:20:43;;;;;;;8.17;5.57;;;;;;;;;;5037475;28;20221;-31
2023/10/28 18:23:12;;;;;;;5.80;4.10;;;;;;;;;;5047311;28;20261;-35
2023/10/28 18:25:40;;;;;;;33.40;14.70;;;;;;;;;;5045779;28;20202;-28
2023/10/28 18:28:07;;;;;;;15.30;10.03;;;;;;;;;;5050407;28;20664;-29
2023/10/28 18:30:34;;;;;;;11.90;7.90;;;;;;;;;;5039352;28;20202;-29
2023/10/28 18:33:02;;;;;;;15.23;11.13;;;;;;;;;;5048255;28;20660;-32
2023/10/28 18:35:29;;;;;;;22.63;14.20;;;;;;;;;;5050580;28;20206;-31
2023/10/28 18:37:57;;;;;;;9.73;6.63;;;;;;;;;;5040387;28;20290;-30
2023/10/28 18:40:28;;;;;;;9.97;5.90;;;;;;;;;;5038211;28;20202;-33
2023/10/28 18:42:55;;;;;;;11.33;6.47;;;;;;;;;;5051103;28;20224;-30
2023/10/28 18:45:22;;;;;;;10.93;7.20;;;;;;;;;;5050813;28;20208;-31
2023/10/28 18:47:52;;;;;;;10.97;7.23;;;;;;;;;;5043852;28;20213;-29
2023/10/28 18:50:21;;;;;;;12.10;7.17;;;;;;;;;;5053657;28;20288;-31
2023/10/28 18:52:48;;;;;;;10.87;6.60;;;;;;;;;;5053136;28;20206;-32
2023/10/28 18:55:15;;;;;;;10.60;6.00;;;;;;;;;;5035220;28;20590;-29
2023/10/28 18:57:44;;;;;;;8.07;4.77;;;;;;;;;;5058659;28;20209;-29
2023/10/28 19:00:11;;;;;;;8.87;5.57;;;;;;;;;;5051470;28;20213;-30
2023/10/28 19:02:38;;;;;;;6.50;4.47;;;;;;;;;;5053294;28;20198;-30
2023/10/28 19:05:06;;;;;;;9.07;6.20;;;;;;;;;;5038798;28;20232;-31
2023/10/28 19:07:33;;;;;;;6.73;4.23;;;;;;;;;;5048576;28;20206;-31
2023/10/28 19:10:02;;;;;;;7.17;5.30;;;;;;;;;;5047290;28;20210;-31
2023/10/28 19:12:29;;;;;;;6.63;4.33;;;;;;;;;;5053715;28;20209;-30
2023/10/28 19:14:57;;;;;;;7.13;4.27;;;;;;;;;;5052942;28;20703;-31
2023/10/28 19:17:25;;;;;;;6.63;5.10;;;;;;;;;;5053671;28;20206;-30
2023/10/28 19:19:52;;;;;;;6.87;4.50;;;;;;;;;;5045848;28;20209;-31
2023/10/28 19:22:20;;;;;;;6.40;3.83;;;;;;;;;;5051158;28;20213;-30
2023/10/28 19:24:49;;;;;;;7.17;5.03;;;;;;;;;;5042183;28;20226;-31
2023/10/28 19:27:16;;;;;;;8.37;4.50;;;;;;;;;;5050976;28;20233;-30
2023/10/28 19:29:43;;;;;;;7.13;4.83;;;;;;;;;;5048228;28;20206;-29
2023/10/28 19:32:11;;;;;;;6.77;4.53;;;;;;;;;;5052335;28;20220;-31
2023/10/28 19:34:38;;;;;;;8.93;4.87;;;;;;;;;;5045207;28;20217;-29
2023/10/28 19:37:06;;;;;;;6.90;5.17;;;;;;;;;;5044028;28;20226;-31
2023/10/28 19:39:33;;;;;;;5.83;4.10;;;;;;;;;;5044561;28;20431;-31
2023/10/28 19:42:01;;;;;;;6.53;4.53;;;;;;;;;;5049010;28;20214;-30
2023/10/28 19:44:28;;;;;;;8.50;5.47;;;;;;;;;;5052717;28;20230;-31
2023/10/28 19:46:56;;;;;;;6.37;3.87;;;;;;;;;;5049757;28;20212;-30
2023/10/28 19:49:24;;;;;;;5.53;4.00;;;;;;;;;;5048841;28;20256;-30
2023/10/28 19:51:52;;;;;;;5.37;4.00;;;;;;;;;;5051686;28;20210;-29
2023/10/28 19:54:19;;;;;;;5.70;3.73;;;;;;;;;;5044908;28;20713;-30
2023/10/28 19:56:46;;;;;;;4.47;3.93;;;;;;;;;;5054334;28;20217;-30
2023/10/28 19:59:13;;;;;;;6.37;4.53;;;;;;;;;;5052367;28;20213;-31
2023/10/28 20:01:40;;;;;;;5.67;3.73;;;;;;;;;;5049958;28;20205;-31
2023/10/28 20:04:07;;;;;;;8.53;3.80;;;;;;;;;;5053569;28;20235;-30
2023/10/28 20:06:36;;;;;;;7.40;4.17;;;;;;;;;;5053139;28;20213;-30
2023/10/28 20:09:03;;;;;;;6.10;4.13;;;;;;;;;;5052744;28;20267;-31
2023/10/28 20:11:30;;;;;;;7.50;4.20;;;;;;;;;;5052022;28;20209;-31
2023/10/28 20:13:57;;;;;;;6.10;4.33;;;;;;;;;;5052780;28;20225;-31
2023/10/28 20:16:25;;;;;;;5.37;3.30;;;;;;;;;;5050796;28;20202;-31
2023/10/28 20:18:52;;;;;;;5.47;3.93;;;;;;;;;;5041181;28;20213;-30
2023/10/28 20:21:20;;;;;;;5.17;3.40;;;;;;;;;;5052263;28;20206;-30
2023/10/28 20:23:48;;;;;;;6.17;3.37;;;;;;;;;;5044183;28;20280;-32
2023/10/28 20:26:15;;;;;;;5.30;3.10;;;;;;;;;;5044942;28;20210;-31
2023/10/28 20:28:44;;;;;;;5.73;3.73;;;;;;;;;;5050179;28;20202;-31
2023/10/28 20:31:11;;;;;;;5.57;3.23;;;;;;;;;;5044809;28;20209;-29
2023/10/28 20:33:38;;;;;;;5.33;3.93;;;;;;;;;;5047886;28;20600;-31
2023/10/28 20:36:06;;;;;;;6.00;3.50;;;;;;;;;;5048028;28;20222;-30
2023/10/28 20:38:33;;;;;;;4.10;3.07;;;;;;;;;;5047109;28;20289;-30
2023/10/28 20:41:02;;;;;;;8.17;4.47;;;;;;;;;;5045731;28;20224;-29
2023/10/28 20:43:29;;;;;;;4.33;3.30;;;;;;;;;;5058279;28;20221;-33
2023/10/28 20:45:56;;;;;;;5.47;3.50;;;;;;;;;;5055989;28;20352;-31
2023/10/28 20:48:24;;;;;;;7.43;4.60;;;;;;;;;;5055732;28;20206;-30
2023/10/28 20:50:51;;;;;;;6.20;4.13;;;;;;;;;;5051201;28;20216;-31
2023/10/28 20:53:19;;;;;;;9.07;4.80;;;;;;;;;;5059798;28;20228;-30
2023/10/28 20:55:46;;;;;;;14.80;9.00;;;;;;;;;;5052112;28;20300;-31
2023/10/28 20:58:15;;;;;;;7.80;5.77;;;;;;;;;;5056239;28;20201;-31
2023/10/28 21:00:42;;;;;;;9.80;6.33;;;;;;;;;;5057148;28;20210;-29
2023/10/28 21:03:10;;;;;;;17.23;9.30;;;;;;;;;;5051842;28;20216;-30
2023/10/28 21:05:37;;;;;;;5.17;4.10;;;;;;;;;;5043759;28;20229;-32
2023/10/28 21:08:04;;;;;;;4.37;3.40;;;;;;;;;;5047291;28;20212;-29
2023/10/28 21:10:31;;;;;;;6.63;4.03;;;;;;;;;;5048193;28;20213;-30
2023/10/28 21:12:59;;;;;;;6.50;4.17;;;;;;;;;;5047399;28;20203;-34
2023/10/28 21:15:27;;;;;;;5.63;4.60;;;;;;;;;;5047043;28;20201;-30
2023/10/28 21:17:54;;;;;;;5.53;4.13;;;;;;;;;;5044854;28;20206;-29
2023/10/28 21:20:21;;;;;;;9.60;4.17;;;;;;;;;;5047002;28;20209;-32
2023/10/28 21:22:49;;;;;;;6.53;4.03;;;;;;;;;;5048463;28;20209;-30
2023/10/28 21:25:18;;;;;;;6.60;4.27;;;;;;;;;;5038949;28;20234;-30
2023/10/28 21:27:45;;;;;;;6.00;4.13;;;;;;;;;;5048352;28;20644;-30
2023/10/28 21:30:13;;;;;;;8.57;4.17;;;;;;;;;;5047447;28;20205;-31
2023/10/28 21:32:41;;;;;;;7.77;4.70;;;;;;;;;;5044876;28;20562;-31
2023/10/28 21:35:08;;;;;;;7.37;4.77;;;;;;;;;;5041542;28;20222;-33
2023/10/28 21:37:39;;;;;;;7.00;4.40;;;;;;;;;;5048272;28;20200;-30
2023/10/28 21:40:08;;;;;;;6.30;4.23;;;;;;;;;;5035761;28;20259;-31